sensor_id;sensor_type;location;lat;lon;timestamp;pressure;altitude;pressure_sealevel;temperature;humidity
43450;BME280;29041;42.266;23.110;2023-02-20T00:02:04;96183.41;;;8.19;63.11
43450;BME280;29041;42.266;23.110;2023-02-20T00:04:51;96187.78;;;8.15;63.92
43450;BME280;29041;42.266;23.110;2023-02-20T00:07:38;96179.34;;;8.36;63.19
43450;BME280;29041;42.266;23.110;2023-02-20T00:10:26;96181.22;;;8.35;63.65
43450;BME280;29041;42.266;23.110;2023-02-20T00:13:14;96174.59;;;8.33;64.49
43450;BME280;29041;42.266;23.110;2023-02-20T00:16:01;96173.81;;;8.32;63.61
43450;BME280;29041;42.266;23.110;2023-02-20T00:18:50;96181.97;;;8.08;65.00
43450;BME280;29041;42.266;23.110;2023-02-20T00:21:44;96186.09;;;8.33;65.54
43450;BME280;29041;42.266;23.110;2023-02-20T00:24:30;96184.00;;;8.30;65.29
43450;BME280;29041;42.266;23.110;2023-02-20T00:27:18;96175.19;;;8.44;65.22
43450;BME280;29041;42.266;23.110;2023-02-20T00:30:06;96185.19;;;8.80;64.26
43450;BME280;29041;42.266;23.110;2023-02-20T00:32:54;96191.38;;;8.52;65.35
43450;BME280;29041;42.266;23.110;2023-02-20T00:35:43;96197.72;;;8.56;66.02
43450;BME280;29041;42.266;23.110;2023-02-20T00:38:30;96205.75;;;8.70;65.80
43450;BME280;29041;42.266;23.110;2023-02-20T00:41:18;96195.81;;;8.85;65.20
43450;BME280;29041;42.266;23.110;2023-02-20T00:44:06;96198.50;;;8.85;65.55
43450;BME280;29041;42.266;23.110;2023-02-20T00:46:53;96195.75;;;8.62;65.72
43450;BME280;29041;42.266;23.110;2023-02-20T00:49:42;96193.72;;;8.40;66.22
43450;BME280;29041;42.266;23.110;2023-02-20T00:52:31;96209.75;;;8.12;67.22
43450;BME280;29041;42.266;23.110;2023-02-20T00:57:55;96186.41;;;7.85;67.48
43450;BME280;29041;42.266;23.110;2023-02-20T01:00:42;96201.69;;;7.98;66.91
43450;BME280;29041;42.266;23.110;2023-02-20T01:03:30;96200.19;;;7.92;67.70
43450;BME280;29041;42.266;23.110;2023-02-20T01:06:17;96208.22;;;7.92;67.59
43450;BME280;29041;42.266;23.110;2023-02-20T01:09:11;96197.03;;;8.04;66.88
43450;BME280;29041;42.266;23.110;2023-02-20T01:11:58;96178.16;;;8.14;66.19
43450;BME280;29041;42.266;23.110;2023-02-20T01:14:45;96177.88;;;7.83;67.53
43450;BME280;29041;42.266;23.110;2023-02-20T01:17:35;96158.38;;;7.82;67.69
43450;BME280;29041;42.266;23.110;2023-02-20T01:20:24;96164.84;;;7.95;67.69
43450;BME280;29041;42.266;23.110;2023-02-20T01:23:13;96166.16;;;7.65;69.06
43450;BME280;29041;42.266;23.110;2023-02-20T01:26:02;96165.63;;;7.49;69.92
43450;BME280;29041;42.266;23.110;2023-02-20T01:28:49;96184.69;;;7.42;70.51
43450;BME280;29041;42.266;23.110;2023-02-20T01:31:36;96187.28;;;7.47;70.43
43450;BME280;29041;42.266;23.110;2023-02-20T01:34:25;96197.44;;;7.64;70.18
43450;BME280;29041;42.266;23.110;2023-02-20T01:42:26;96200.63;;;7.66;68.43
43450;BME280;29041;42.266;23.110;2023-02-20T01:50:55;96216.25;;;7.21;70.54
43450;BME280;29041;42.266;23.110;2023-02-20T01:53:43;96220.41;;;6.89;72.13
43450;BME280;29041;42.266;23.110;2023-02-20T01:56:30;96217.91;;;6.73;72.55
43450;BME280;29041;42.266;23.110;2023-02-20T01:59:20;96206.91;;;6.56;73.81
43450;BME280;29041;42.266;23.110;2023-02-20T02:02:09;96218.44;;;6.75;73.28
43450;BME280;29041;42.266;23.110;2023-02-20T02:04:57;96219.34;;;6.65;74.25
43450;BME280;29041;42.266;23.110;2023-02-20T02:07:45;96219.88;;;6.87;72.82
43450;BME280;29041;42.266;23.110;2023-02-20T02:10:48;96214.41;;;6.78;73.98
43450;BME280;29041;42.266;23.110;2023-02-20T02:13:39;96218.84;;;6.63;74.45
43450;BME280;29041;42.266;23.110;2023-02-20T02:16:36;96231.94;;;6.60;75.05
43450;BME280;29041;42.266;23.110;2023-02-20T02:27:03;96209.16;;;6.67;75.01
43450;BME280;29041;42.266;23.110;2023-02-20T02:30:26;96223.13;;;6.83;74.74
43450;BME280;29041;42.266;23.110;2023-02-20T02:33:44;96233.41;;;6.95;74.01
43450;BME280;29041;42.266;23.110;2023-02-20T02:36:52;96238.00;;;6.90;74.70
43450;BME280;29041;42.266;23.110;2023-02-20T02:39:47;96257.16;;;7.16;73.44
43450;BME280;29041;42.266;23.110;2023-02-20T02:42:41;96274.47;;;7.19;74.32
43450;BME280;29041;42.266;23.110;2023-02-20T02:45:36;96286.50;;;6.97;77.46
43450;BME280;29041;42.266;23.110;2023-02-20T02:48:27;96288.78;;;6.85;80.46
43450;BME280;29041;42.266;23.110;2023-02-20T02:51:20;96303.59;;;7.39;81.22
43450;BME280;29041;42.266;23.110;2023-02-20T02:54:13;96311.44;;;8.07;78.83
43450;BME280;29041;42.266;23.110;2023-02-20T02:57:20;96317.22;;;8.14;77.39
43450;BME280;29041;42.266;23.110;2023-02-20T03:00:13;96310.91;;;8.24;76.11
43450;BME280;29041;42.266;23.110;2023-02-20T03:03:04;96314.78;;;7.99;78.25
43450;BME280;29041;42.266;23.110;2023-02-20T03:05:56;96320.88;;;7.66;79.36
43450;BME280;29041;42.266;23.110;2023-02-20T03:08:48;96314.78;;;6.98;82.65
43450;BME280;29041;42.266;23.110;2023-02-20T03:11:44;96302.84;;;7.14;84.87
43450;BME280;29041;42.266;23.110;2023-02-20T03:14:36;96309.38;;;7.66;85.19
43450;BME280;29041;42.266;23.110;2023-02-20T03:17:48;96299.94;;;7.73;84.77
43450;BME280;29041;42.266;23.110;2023-02-20T03:20:42;96313.63;;;7.86;84.79
43450;BME280;29041;42.266;23.110;2023-02-20T03:23:32;96315.47;;;8.04;83.72
43450;BME280;29041;42.266;23.110;2023-02-20T03:26:26;96326.88;;;8.29;83.36
43450;BME280;29041;42.266;23.110;2023-02-20T03:29:18;96343.31;;;8.55;82.29
43450;BME280;29041;42.266;23.110;2023-02-20T03:32:11;96331.22;;;8.58;81.48
43450;BME280;29041;42.266;23.110;2023-02-20T03:35:17;96347.16;;;8.82;79.96
43450;BME280;29041;42.266;23.110;2023-02-20T03:38:24;96361.94;;;8.47;81.46
43450;BME280;29041;42.266;23.110;2023-02-20T03:41:30;96335.22;;;8.75;79.69
43450;BME280;29041;42.266;23.110;2023-02-20T03:44:40;96294.97;;;8.19;81.44
43450;BME280;29041;42.266;23.110;2023-02-20T03:47:28;96329.25;;;8.64;79.44
43450;BME280;29041;42.266;23.110;2023-02-20T03:50:18;96327.88;;;8.66;78.88
43450;BME280;29041;42.266;23.110;2023-02-20T03:53:23;96327.41;;;8.45;79.36
43450;BME280;29041;42.266;23.110;2023-02-20T03:56:16;96352.28;;;8.46;79.76
43450;BME280;29041;42.266;23.110;2023-02-20T03:59:13;96350.19;;;8.76;78.11
43450;BME280;29041;42.266;23.110;2023-02-20T04:02:06;96348.88;;;8.26;81.06
43450;BME280;29041;42.266;23.110;2023-02-20T04:04:57;96359.03;;;8.43;80.91
43450;BME280;29041;42.266;23.110;2023-02-20T04:08:01;96361.09;;;8.46;79.83
43450;BME280;29041;42.266;23.110;2023-02-20T04:11:00;96362.75;;;7.90;83.65
43450;BME280;29041;42.266;23.110;2023-02-20T04:13:50;96348.59;;;7.51;86.16
43450;BME280;29041;42.266;23.110;2023-02-20T04:19:15;96370.97;;;8.51;80.83
43450;BME280;29041;42.266;23.110;2023-02-20T04:22:05;96380.91;;;8.64;78.59
43450;BME280;29041;42.266;23.110;2023-02-20T04:24:59;96380.00;;;8.55;79.18
43450;BME280;29041;42.266;23.110;2023-02-20T04:27:47;96363.47;;;8.15;81.05
43450;BME280;29041;42.266;23.110;2023-02-20T04:30:35;96378.31;;;8.07;82.85
43450;BME280;29041;42.266;23.110;2023-02-20T04:33:22;96375.66;;;7.63;85.93
43450;BME280;29041;42.266;23.110;2023-02-20T04:36:11;96377.16;;;7.32;88.51
43450;BME280;29041;42.266;23.110;2023-02-20T04:38:58;96379.59;;;7.28;89.31
43450;BME280;29041;42.266;23.110;2023-02-20T04:41:45;96374.31;;;6.98;90.91
43450;BME280;29041;42.266;23.110;2023-02-20T04:44:33;96385.09;;;7.12;91.06
43450;BME280;29041;42.266;23.110;2023-02-20T04:47:21;96375.44;;;7.17;89.74
43450;BME280;29041;42.266;23.110;2023-02-20T04:50:09;96374.53;;;7.51;86.09
43450;BME280;29041;42.266;23.110;2023-02-20T04:53:00;96369.59;;;7.14;86.89
43450;BME280;29041;42.266;23.110;2023-02-20T04:55:47;96383.06;;;7.04;88.57
43450;BME280;29041;42.266;23.110;2023-02-20T04:58:34;96393.09;;;6.88;90.77
43450;BME280;29041;42.266;23.110;2023-02-20T05:01:23;96401.66;;;6.85;91.57
43450;BME280;29041;42.266;23.110;2023-02-20T05:04:10;96385.94;;;6.83;91.42
43450;BME280;29041;42.266;23.110;2023-02-20T05:06:58;96416.69;;;7.05;90.21
43450;BME280;29041;42.266;23.110;2023-02-20T05:09:46;96419.44;;;6.95;90.20
43450;BME280;29041;42.266;23.110;2023-02-20T05:12:33;96391.22;;;7.37;85.68
43450;BME280;29041;42.266;23.110;2023-02-20T05:17:56;96396.78;;;7.65;80.98
43450;BME280;29041;42.266;23.110;2023-02-20T05:20:43;96423.09;;;7.77;79.57
43450;BME280;29041;42.266;23.110;2023-02-20T05:23:48;96430.63;;;7.94;78.71
43450;BME280;29041;42.266;23.110;2023-02-20T05:26:39;96454.09;;;8.35;76.12
43450;BME280;29041;42.266;23.110;2023-02-20T05:29:27;96460.91;;;8.28;73.34
43450;BME280;29041;42.266;23.110;2023-02-20T05:32:14;96474.59;;;8.64;71.53
43450;BME280;29041;42.266;23.110;2023-02-20T05:35:02;96497.34;;;8.81;69.87
43450;BME280;29041;42.266;23.110;2023-02-20T05:37:49;96484.69;;;8.29;72.85
43450;BME280;29041;42.266;23.110;2023-02-20T05:40:37;96486.63;;;8.48;72.58
43450;BME280;29041;42.266;23.110;2023-02-20T05:43:25;96502.81;;;8.76;71.40
43450;BME280;29041;42.266;23.110;2023-02-20T05:46:14;96496.50;;;8.66;71.79
43450;BME280;29041;42.266;23.110;2023-02-20T05:49:01;96505.69;;;8.60;71.01
43450;BME280;29041;42.266;23.110;2023-02-20T05:51:48;96493.91;;;8.80;70.34
43450;BME280;29041;42.266;23.110;2023-02-20T06:07:06;96509.63;;;7.81;79.52
43450;BME280;29041;42.266;23.110;2023-02-20T06:10:26;96479.13;;;7.39;80.47
43450;BME280;29041;42.266;23.110;2023-02-20T06:13:19;96488.16;;;7.91;75.21
43450;BME280;29041;42.266;23.110;2023-02-20T06:16:43;96541.91;;;8.33;71.97
43450;BME280;29041;42.266;23.110;2023-02-20T06:19:45;96523.97;;;8.34;69.42
43450;BME280;29041;42.266;23.110;2023-02-20T08:00:31;96487.25;;;22.27;26.35
43450;BME280;29041;42.266;23.110;2023-02-20T08:03:19;96513.75;;;22.75;25.79
43450;BME280;29041;42.266;23.110;2023-02-20T08:06:07;96522.09;;;20.52;27.48
43450;BME280;29041;42.266;23.110;2023-02-20T08:21:00;96504.66;;;20.30;27.35
43450;BME280;29041;42.266;23.110;2023-02-20T08:23:46;96519.34;;;21.44;26.47
43450;BME280;29041;42.266;23.110;2023-02-20T08:26:34;96520.75;;;19.03;29.13
43450;BME280;29041;42.266;23.110;2023-02-20T08:29:21;96510.06;;;19.33;29.13
43450;BME280;29041;42.266;23.110;2023-02-20T08:38:54;96519.19;;;20.95;26.73
43450;BME280;29041;42.266;23.110;2023-02-20T09:01:19;96506.28;;;21.26;26.32
43450;BME280;29041;42.266;23.110;2023-02-20T09:04:06;96502.53;;;21.83;25.69
43450;BME280;29041;42.266;23.110;2023-02-20T09:06:55;96498.59;;;21.35;25.92
43450;BME280;29041;42.266;23.110;2023-02-20T09:38:53;96502.31;;;17.13;30.67
43450;BME280;29041;42.266;23.110;2023-02-20T09:44:23;96480.09;;;16.67;30.26
43450;BME280;29041;42.266;23.110;2023-02-20T09:47:30;96491.09;;;16.86;30.64
43450;BME280;29041;42.266;23.110;2023-02-20T10:10:30;96477.25;;;17.48;29.70
43450;BME280;29041;42.266;23.110;2023-02-20T10:34:22;96498.16;;;15.84;31.28
43450;BME280;29041;42.266;23.110;2023-02-20T11:23:09;96441.31;;;17.07;28.46
43450;BME280;29041;42.266;23.110;2023-02-20T12:50:21;96419.22;;;17.53;27.22
43450;BME280;29041;42.266;23.110;2023-02-20T13:33:40;96408.56;;;17.00;28.65
43450;BME280;29041;42.266;23.110;2023-02-20T13:36:43;96425.13;;;16.13;29.14
43450;BME280;29041;42.266;23.110;2023-02-20T14:12:38;96413.03;;;16.23;30.10
43450;BME280;29041;42.266;23.110;2023-02-20T14:15:25;96426.13;;;16.61;29.67
43450;BME280;29041;42.266;23.110;2023-02-20T14:18:18;96440.59;;;15.63;31.01
43450;BME280;29041;42.266;23.110;2023-02-20T14:21:09;96433.16;;;15.84;30.58
43450;BME280;29041;42.266;23.110;2023-02-20T14:24:15;96430.56;;;15.76;30.73
43450;BME280;29041;42.266;23.110;2023-02-20T14:27:24;96437.06;;;14.58;32.96
43450;BME280;29041;42.266;23.110;2023-02-20T18:41:56;96517.44;;;6.94;57.34
43450;BME280;29041;42.266;23.110;2023-02-20T18:45:04;96481.66;;;6.61;57.76
43450;BME280;29041;42.266;23.110;2023-02-20T18:48:28;96470.63;;;6.38;58.36
43450;BME280;29041;42.266;23.110;2023-02-20T18:51:31;96496.28;;;6.69;58.15
43450;BME280;29041;42.266;23.110;2023-02-20T18:54:28;96501.06;;;7.01;57.44
43450;BME280;29041;42.266;23.110;2023-02-20T18:57:48;96494.78;;;6.92;57.63
43450;BME280;29041;42.266;23.110;2023-02-20T19:00:39;96482.84;;;7.13;56.29
43450;BME280;29041;42.266;23.110;2023-02-20T19:03:33;96504.88;;;6.95;57.44
43450;BME280;29041;42.266;23.110;2023-02-20T19:06:24;96499.03;;;6.58;58.17
43450;BME280;29041;42.266;23.110;2023-02-20T19:09:27;96489.66;;;6.16;59.61
43450;BME280;29041;42.266;23.110;2023-02-20T19:12:25;96446.31;;;6.00;60.04
43450;BME280;29041;42.266;23.110;2023-02-20T19:15:19;96480.06;;;6.60;59.35
43450;BME280;29041;42.266;23.110;2023-02-20T19:18:17;96506.56;;;6.46;59.27
43450;BME280;29041;42.266;23.110;2023-02-20T19:21:08;96491.84;;;6.54;58.91
43450;BME280;29041;42.266;23.110;2023-02-20T19:23:56;96509.38;;;6.65;59.47
43450;BME280;29041;42.266;23.110;2023-02-20T19:26:44;96506.53;;;6.91;58.10
43450;BME280;29041;42.266;23.110;2023-02-20T19:32:09;96477.47;;;6.05;60.52
43450;BME280;29041;42.266;23.110;2023-02-20T19:34:57;96498.28;;;5.92;61.72
43450;BME280;29041;42.266;23.110;2023-02-20T19:37:57;96458.53;;;5.96;61.07
43450;BME280;29041;42.266;23.110;2023-02-20T19:40:52;96502.53;;;6.48;59.84
43450;BME280;29041;42.266;23.110;2023-02-20T19:43:42;96462.03;;;5.96;60.20
43450;BME280;29041;42.266;23.110;2023-02-20T19:46:32;96476.63;;;6.14;64.25
43450;BME280;29041;42.266;23.110;2023-02-20T19:49:21;96487.97;;;5.75;62.46
43450;BME280;29041;42.266;23.110;2023-02-20T19:52:10;96477.22;;;5.15;64.32
43450;BME280;29041;42.266;23.110;2023-02-20T19:55:04;96475.84;;;5.22;64.38
43450;BME280;29041;42.266;23.110;2023-02-20T19:57:51;96488.84;;;5.50;63.59
43450;BME280;29041;42.266;23.110;2023-02-20T20:00:42;96511.47;;;5.52;64.27
43450;BME280;29041;42.266;23.110;2023-02-20T20:03:36;96520.59;;;5.15;65.06
43450;BME280;29041;42.266;23.110;2023-02-20T20:06:52;96506.75;;;4.92;66.17
43450;BME280;29041;42.266;23.110;2023-02-20T20:09:47;96472.69;;;4.48;67.19
43450;BME280;29041;42.266;23.110;2023-02-20T20:12:35;96485.47;;;4.56;67.32
43450;BME280;29041;42.266;23.110;2023-02-20T20:15:36;96519.00;;;4.52;68.24
43450;BME280;29041;42.266;23.110;2023-02-20T20:18:23;96497.16;;;4.40;68.09
43450;BME280;29041;42.266;23.110;2023-02-20T20:21:11;96535.72;;;4.58;69.19
43450;BME280;29041;42.266;23.110;2023-02-20T20:24:00;96508.34;;;4.63;68.75
43450;BME280;29041;42.266;23.110;2023-02-20T20:26:52;96503.56;;;4.65;68.77
43450;BME280;29041;42.266;23.110;2023-02-20T20:29:39;96497.19;;;4.71;68.48
43450;BME280;29041;42.266;23.110;2023-02-20T20:32:29;96490.78;;;4.56;69.10
43450;BME280;29041;42.266;23.110;2023-02-20T20:35:16;96500.13;;;4.49;70.38
43450;BME280;29041;42.266;23.110;2023-02-20T20:41:10;96494.25;;;4.41;70.81
43450;BME280;29041;42.266;23.110;2023-02-20T20:44:01;96498.53;;;4.84;68.91
43450;BME280;29041;42.266;23.110;2023-02-20T20:46:53;96503.56;;;4.49;70.56
43450;BME280;29041;42.266;23.110;2023-02-20T20:49:47;96502.00;;;4.74;69.84
43450;BME280;29041;42.266;23.110;2023-02-20T20:52:35;96504.91;;;4.78;68.76
43450;BME280;29041;42.266;23.110;2023-02-20T20:55:32;96499.56;;;4.88;68.32
43450;BME280;29041;42.266;23.110;2023-02-20T20:58:23;96504.38;;;4.60;69.34
43450;BME280;29041;42.266;23.110;2023-02-20T21:01:25;96496.88;;;4.26;70.94
43450;BME280;29041;42.266;23.110;2023-02-20T21:04:14;96445.00;;;4.03;70.60
43450;BME280;29041;42.266;23.110;2023-02-20T21:09:40;96489.66;;;4.01;72.74
43450;BME280;29041;42.266;23.110;2023-02-20T21:12:28;96477.47;;;4.15;71.50
43450;BME280;29041;42.266;23.110;2023-02-20T21:15:17;96475.31;;;4.02;72.21
43450;BME280;29041;42.266;23.110;2023-02-20T21:18:10;96498.69;;;4.05;72.04
43450;BME280;29041;42.266;23.110;2023-02-20T21:20:57;96499.63;;;3.73;73.31
43450;BME280;29041;42.266;23.110;2023-02-20T21:23:45;96491.59;;;3.57;74.50
43450;BME280;29041;42.266;23.110;2023-02-20T21:26:33;96491.16;;;3.81;73.50
43450;BME280;29041;42.266;23.110;2023-02-20T21:29:23;96488.16;;;3.62;73.85
43450;BME280;29041;42.266;23.110;2023-02-20T21:32:25;96478.94;;;3.80;72.82
43450;BME280;29041;42.266;23.110;2023-02-20T21:35:15;96468.78;;;3.61;73.27
43450;BME280;29041;42.266;23.110;2023-02-20T21:38:02;96463.53;;;3.72;72.68
43450;BME280;29041;42.266;23.110;2023-02-20T21:40:52;96446.84;;;3.28;73.63
43450;BME280;29041;42.266;23.110;2023-02-20T21:43:39;96465.50;;;3.44;74.24
43450;BME280;29041;42.266;23.110;2023-02-20T21:46:43;96460.84;;;3.13;75.13
43450;BME280;29041;42.266;23.110;2023-02-20T21:49:35;96456.81;;;3.06;75.99
43450;BME280;29041;42.266;23.110;2023-02-20T21:52:24;96453.00;;;2.91;77.02
43450;BME280;29041;42.266;23.110;2023-02-20T21:55:20;96440.56;;;2.92;76.77
43450;BME280;29041;42.266;23.110;2023-02-20T21:58:34;96444.06;;;3.03;76.60
43450;BME280;29041;42.266;23.110;2023-02-20T22:01:39;96437.59;;;2.83;77.23
43450;BME280;29041;42.266;23.110;2023-02-20T22:04:25;96420.38;;;2.85;76.17
43450;BME280;29041;42.266;23.110;2023-02-20T22:07:13;96408.06;;;2.74;76.92
43450;BME280;29041;42.266;23.110;2023-02-20T22:10:18;96406.59;;;2.51;77.66
43450;BME280;29041;42.266;23.110;2023-02-20T22:13:23;96420.47;;;2.63;78.50
43450;BME280;29041;42.266;23.110;2023-02-20T22:16:28;96433.16;;;2.61;77.84
43450;BME280;29041;42.266;23.110;2023-02-20T22:19:33;96420.44;;;2.58;77.54
43450;BME280;29041;42.266;23.110;2023-02-20T22:22:39;96406.75;;;2.34;78.65
43450;BME280;29041;42.266;23.110;2023-02-20T22:28:14;96424.59;;;2.16;80.56
43450;BME280;29041;42.266;23.110;2023-02-20T22:31:19;96427.34;;;1.99;80.82
43450;BME280;29041;42.266;23.110;2023-02-20T22:34:23;96400.13;;;2.36;78.75
43450;BME280;29041;42.266;23.110;2023-02-20T22:37:28;96385.00;;;1.99;80.34
43450;BME280;29041;42.266;23.110;2023-02-20T22:40:34;96425.03;;;2.35;80.36
43450;BME280;29041;42.266;23.110;2023-02-20T22:43:39;96426.53;;;2.26;81.02
43450;BME280;29041;42.266;23.110;2023-02-20T22:46:43;96416.66;;;2.16;81.70
43450;BME280;29041;42.266;23.110;2023-02-20T22:49:57;96416.53;;;2.06;81.88
43450;BME280;29041;42.266;23.110;2023-02-20T22:53:02;96409.16;;;2.08;82.36
43450;BME280;29041;42.266;23.110;2023-02-20T22:56:15;96411.47;;;1.99;83.17
43450;BME280;29041;42.266;23.110;2023-02-20T22:59:20;96403.66;;;2.15;82.37
43450;BME280;29041;42.266;23.110;2023-02-20T23:02:25;96396.97;;;2.07;82.48
43450;BME280;29041;42.266;23.110;2023-02-20T23:05:30;96399.28;;;2.31;81.29
43450;BME280;29041;42.266;23.110;2023-02-20T23:08:35;96387.53;;;2.21;80.97
43450;BME280;29041;42.266;23.110;2023-02-20T23:12:14;96397.84;;;2.18;81.83
43450;BME280;29041;42.266;23.110;2023-02-20T23:15:36;96391.63;;;2.34;81.57
43450;BME280;29041;42.266;23.110;2023-02-20T23:18:42;96388.84;;;2.19;82.49
43450;BME280;29041;42.266;23.110;2023-02-20T23:21:46;96398.75;;;2.01;83.06
43450;BME280;29041;42.266;23.110;2023-02-20T23:24:51;96384.81;;;1.79;84.68
43450;BME280;29041;42.266;23.110;2023-02-20T23:28:01;96399.72;;;2.17;82.33
43450;BME280;29041;42.266;23.110;2023-02-20T23:36:29;96362.94;;;1.39;83.70
43450;BME280;29041;42.266;23.110;2023-02-20T23:39:34;96397.72;;;1.48;84.11
43450;BME280;29041;42.266;23.110;2023-02-20T23:42:39;96387.94;;;1.26;86.17
43450;BME280;29041;42.266;23.110;2023-02-20T23:45:45;96410.44;;;1.51;84.94
43450;BME280;29041;42.266;23.110;2023-02-20T23:48:50;96400.22;;;1.37;85.86
43450;BME280;29041;42.266;23.110;2023-02-20T23:57:03;96394.09;;;1.81;83.60
